createdAt,value
2018-07-20T00:00:31.958Z,82.90
2018-07-20T00:03:01.773Z,83.90
2018-07-20T00:05:31.475Z,84.20
2018-07-20T00:08:01.250Z,84.40
2018-07-20T00:10:30.916Z,85.20
2018-07-20T00:13:00.639Z,85.60
2018-07-20T00:15:31.161Z,86.20
2018-07-20T00:18:00.874Z,86.60
2018-07-20T00:20:30.626Z,87.00
2018-07-20T00:23:00.300Z,87.40
2018-07-20T00:25:30.053Z,87.40
2018-07-20T00:27:59.739Z,87.50
2018-07-20T00:30:29.492Z,86.40
2018-07-20T00:32:59.220Z,85.40
2018-07-20T00:35:28.951Z,84.00
2018-07-20T00:37:58.711Z,83.80
2018-07-20T00:40:28.462Z,84.90
2018-07-20T00:42:58.167Z,85.00
2018-07-20T00:45:28.446Z,84.90
2018-07-20T00:47:58.234Z,84.10
2018-07-20T00:50:29.127Z,84.30
2018-07-20T00:52:58.946Z,84.30
2018-07-20T00:55:28.664Z,84.40
2018-07-20T00:57:58.440Z,84.60
2018-07-20T01:00:28.127Z,84.40
2018-07-20T01:02:57.817Z,84.30
2018-07-20T01:07:56.863Z,85.40
2018-07-20T01:10:27.257Z,85.00
2018-07-20T01:12:56.989Z,85.80
2018-07-20T01:15:26.735Z,85.30
2018-07-20T01:17:56.478Z,85.60
2018-07-20T01:20:26.232Z,86.20
2018-07-20T01:22:55.957Z,86.80
2018-07-20T01:25:25.715Z,87.90
2018-07-20T01:27:55.421Z,88.30
2018-07-20T01:30:25.168Z,88.50
2018-07-20T01:32:54.855Z,89.00
2018-07-20T01:35:24.625Z,88.90
2018-07-20T01:37:54.319Z,89.10
2018-07-20T01:40:23.996Z,89.80
2018-07-20T01:42:53.791Z,89.80
2018-07-20T01:45:24.551Z,90.20
2018-07-20T01:47:54.443Z,90.20
2018-07-20T01:50:24.149Z,90.40
2018-07-20T01:52:53.823Z,90.50
2018-07-20T01:55:24.101Z,90.40
2018-07-20T01:57:53.902Z,90.50
2018-07-20T02:00:23.630Z,90.10
2018-07-20T02:02:53.324Z,90.10
2018-07-20T02:05:23.012Z,90.40
2018-07-20T02:07:52.738Z,90.50
2018-07-20T02:10:22.467Z,90.60
2018-07-20T02:12:52.179Z,91.00
2018-07-20T02:15:21.888Z,91.40
2018-07-20T02:17:51.811Z,91.70
2018-07-20T02:20:21.554Z,91.70
2018-07-20T02:22:51.228Z,91.50
2018-07-20T02:25:20.965Z,91.50
2018-07-20T02:27:50.665Z,91.70
2018-07-20T02:30:20.403Z,91.90
2018-07-20T02:32:50.111Z,91.80
2018-07-20T02:35:19.823Z,91.70
2018-07-20T02:37:49.520Z,91.20
2018-07-20T02:40:19.216Z,91.20
2018-07-20T02:42:48.899Z,91.00
2018-07-20T02:45:19.734Z,91.10
2018-07-20T02:47:49.542Z,91.20
2018-07-20T02:50:19.338Z,91.40
2018-07-20T02:52:49.284Z,91.90
2018-07-20T02:55:18.940Z,92.20
2018-07-20T02:57:48.667Z,92.60
2018-07-20T03:00:18.358Z,92.70
2018-07-20T03:02:49.067Z,93.10
2018-07-20T03:07:47.929Z,93.10
2018-07-20T03:10:17.646Z,92.90
2018-07-20T03:12:47.351Z,92.80
2018-07-20T03:15:17.087Z,93.00
2018-07-20T03:17:46.789Z,93.00
2018-07-20T03:20:16.478Z,93.00
2018-07-20T03:22:46.205Z,93.50
2018-07-20T03:25:15.919Z,93.40
2018-07-20T03:27:45.623Z,93.50
2018-07-20T03:30:15.330Z,93.50
2018-07-20T03:32:45.079Z,93.80
2018-07-20T03:35:14.739Z,93.80
2018-07-20T03:37:44.461Z,93.80
2018-07-20T03:40:14.772Z,93.90
2018-07-20T03:42:44.486Z,93.90
2018-07-20T03:45:14.207Z,94.10
2018-07-20T03:50:13.099Z,94.10
2018-07-20T03:52:42.790Z,94.10
2018-07-20T03:55:12.514Z,94.00
2018-07-20T03:57:42.250Z,93.90
2018-07-20T04:00:11.967Z,93.80
2018-07-20T04:02:41.668Z,93.70
2018-07-20T04:05:11.364Z,93.90
2018-07-20T04:07:41.054Z,93.90
2018-07-20T04:10:11.335Z,93.60
2018-07-20T04:12:40.962Z,93.50
2018-07-20T04:15:10.706Z,93.60
2018-07-20T04:17:43.286Z,93.20
2018-07-20T04:20:14.406Z,93.10
2018-07-20T04:22:44.622Z,93.00
2018-07-20T04:25:14.312Z,92.70
2018-07-20T04:27:44.031Z,92.80
2018-07-20T04:30:14.695Z,92.90
2018-07-20T04:32:44.377Z,92.00
2018-07-20T04:35:14.051Z,91.70
2018-07-20T04:37:43.722Z,91.30
2018-07-20T04:40:13.499Z,90.80
2018-07-20T04:42:43.190Z,90.60
2018-07-20T04:45:12.935Z,91.40
2018-07-20T04:47:42.609Z,91.60
2018-07-20T04:50:12.322Z,91.50
2018-07-20T04:52:41.991Z,91.10
2018-07-20T04:55:11.707Z,91.30
2018-07-20T04:57:41.365Z,91.30
2018-07-20T05:00:11.112Z,90.20
2018-07-20T05:02:40.767Z,90.80
2018-07-20T05:05:10.463Z,90.40
2018-07-20T05:07:40.852Z,89.40
2018-07-20T05:10:10.564Z,87.70
2018-07-20T05:12:40.238Z,87.20
2018-07-20T05:15:09.931Z,86.60
2018-07-20T05:17:39.623Z,87.10
2018-07-20T05:20:09.310Z,86.90
2018-07-20T05:22:39.030Z,87.20
2018-07-20T05:25:08.718Z,87.30
2018-07-20T05:27:38.530Z,86.20
2018-07-20T05:30:08.218Z,85.30
2018-07-20T05:32:38.321Z,85.20
2018-07-20T05:35:08.475Z,84.60
2018-07-20T05:37:38.263Z,84.00
2018-07-20T05:40:07.939Z,84.20
2018-07-20T05:42:37.618Z,84.10
2018-07-20T05:45:07.611Z,84.00
2018-07-20T05:47:37.270Z,82.90
2018-07-20T05:50:07.958Z,82.50
2018-07-20T05:52:37.710Z,82.50
2018-07-20T05:55:07.418Z,82.80
2018-07-20T05:57:37.151Z,82.70
2018-07-20T06:00:06.997Z,81.60
2018-07-20T06:02:36.738Z,80.90
2018-07-20T06:05:06.455Z,80.60
2018-07-20T06:07:36.122Z,80.60
2018-07-20T06:10:05.872Z,81.40
2018-07-20T06:12:35.559Z,82.10
2018-07-20T06:15:05.747Z,80.10
2018-07-20T06:17:35.467Z,80.90
2018-07-20T06:20:07.338Z,78.70
2018-07-20T06:22:37.435Z,79.20
2018-07-20T06:25:07.158Z,78.60
2018-07-20T06:27:36.855Z,78.80
2018-07-20T06:30:07.155Z,78.00
2018-07-20T06:32:37.071Z,78.50
2018-07-20T06:35:06.766Z,78.30
2018-07-20T06:37:36.443Z,76.40
2018-07-20T06:40:07.002Z,75.70
2018-07-20T06:42:36.690Z,77.70
2018-07-20T06:45:06.508Z,75.70
2018-07-20T06:47:36.226Z,74.60
2018-07-20T06:50:11.207Z,75.60
2018-07-20T06:52:40.912Z,75.40
2018-07-20T06:55:10.673Z,75.10
2018-07-20T06:57:40.395Z,74.40
2018-07-20T07:00:10.662Z,73.00
2018-07-20T07:02:40.333Z,70.50
2018-07-20T07:05:10.887Z,72.60
2018-07-20T07:07:40.580Z,72.30
2018-07-20T07:10:10.552Z,69.60
2018-07-20T07:12:40.213Z,69.70
2018-07-20T07:17:39.146Z,68.30
2018-07-20T07:20:08.852Z,67.40
2018-07-20T07:22:38.559Z,68.00
2018-07-20T07:25:08.266Z,67.00
2018-07-20T07:27:37.942Z,68.20
2018-07-20T07:32:36.805Z,67.10
2018-07-20T07:35:06.543Z,66.10
2018-07-20T07:37:36.225Z,65.50
2018-07-20T07:40:05.955Z,63.90
2018-07-20T07:42:35.671Z,63.60
2018-07-20T07:45:05.430Z,60.90
2018-07-20T07:47:35.135Z,62.60
2018-07-20T07:50:05.315Z,61.70
2018-07-20T07:52:35.028Z,62.30
2018-07-20T07:55:04.958Z,63.00
2018-07-20T07:57:34.651Z,61.60
2018-07-20T08:00:05.942Z,63.40
2018-07-20T08:02:35.654Z,62.00
2018-07-20T08:05:06.390Z,59.30
2018-07-20T08:07:36.152Z,62.30
2018-07-20T08:10:06.553Z,63.50
2018-07-20T08:12:37.712Z,61.30
2018-07-20T08:15:07.534Z,62.30
2018-07-20T08:20:06.521Z,61.80
2018-07-20T08:22:36.215Z,62.10
2018-07-20T08:25:05.964Z,63.40
2018-07-20T08:27:36.535Z,59.90
2018-07-20T08:30:06.251Z,59.90
2018-07-20T08:32:36.641Z,60.60
2018-07-20T08:35:06.384Z,57.90
2018-07-20T08:37:36.130Z,55.20
2018-07-20T08:40:05.904Z,55.00
2018-07-20T08:42:36.479Z,54.50
2018-07-20T08:45:06.357Z,52.20
2018-07-20T08:47:36.079Z,54.40
2018-07-20T08:50:06.115Z,50.80
2018-07-20T08:52:35.851Z,51.80
2018-07-20T08:55:06.374Z,51.60
2018-07-20T08:57:36.097Z,51.50
2018-07-20T09:00:06.396Z,52.50
2018-07-20T09:02:36.099Z,50.40
2018-07-20T09:05:06.162Z,51.10
2018-07-20T09:07:36.019Z,51.50
2018-07-20T09:10:05.755Z,50.90
2018-07-20T09:12:35.522Z,50.90
2018-07-20T09:15:05.436Z,50.60
2018-07-20T09:17:35.210Z,47.90
2018-07-20T09:20:05.062Z,47.70
2018-07-20T09:22:34.779Z,50.00
2018-07-20T09:25:04.770Z,47.90
2018-07-20T09:27:35.115Z,49.20
2018-07-20T09:30:05.173Z,48.80
2018-07-20T09:32:34.895Z,47.40
2018-07-20T09:35:04.688Z,48.60
2018-07-20T09:37:34.419Z,46.60
2018-07-20T09:40:05.022Z,45.40
2018-07-20T09:42:34.780Z,45.60
2018-07-20T09:45:04.907Z,46.70
2018-07-20T09:47:34.631Z,45.80
2018-07-20T09:50:05.002Z,44.20
2018-07-20T09:52:34.736Z,46.20
2018-07-20T09:55:04.497Z,46.50
2018-07-20T09:57:34.323Z,47.80
2018-07-20T10:00:04.621Z,46.10
2018-07-20T10:02:34.574Z,43.90
2018-07-20T10:07:35.715Z,44.40
2018-07-20T10:10:05.441Z,43.70
2018-07-20T10:12:37.495Z,44.30
2018-07-20T10:15:08.811Z,45.00
2018-07-20T10:17:38.556Z,44.70
2018-07-20T10:20:08.368Z,44.10
2018-07-20T10:22:38.195Z,44.30
2018-07-20T10:25:07.979Z,47.20
2018-07-20T10:27:37.752Z,45.60
2018-07-20T10:30:07.722Z,43.70
2018-07-20T10:32:37.426Z,43.40
2018-07-20T10:35:07.190Z,43.10
2018-07-20T10:37:37.574Z,42.50
2018-07-20T10:40:08.122Z,43.40
2018-07-20T10:42:37.835Z,41.10
2018-07-20T10:45:07.958Z,40.30
2018-07-20T10:47:37.707Z,40.30
2018-07-20T10:52:39.020Z,44.50
2018-07-20T10:55:09.611Z,44.80
2018-07-20T10:57:39.304Z,41.70
2018-07-20T11:02:38.266Z,40.90
2018-07-20T11:05:08.088Z,41.40
2018-07-20T11:07:37.828Z,41.50
2018-07-20T11:10:07.676Z,41.20
2018-07-20T11:12:37.470Z,41.30
2018-07-20T11:15:07.275Z,41.10
2018-07-20T11:17:37.003Z,40.60
2018-07-20T11:20:08.443Z,42.50
2018-07-20T11:22:38.232Z,41.00
2018-07-20T11:27:37.174Z,40.20
2018-07-20T11:30:06.903Z,41.20
2018-07-20T11:32:36.659Z,39.50
2018-07-20T11:35:06.433Z,42.30
2018-07-20T11:37:36.151Z,38.80
2018-07-20T11:40:05.878Z,41.10
2018-07-20T11:42:35.590Z,41.00
2018-07-20T11:45:05.772Z,41.90
2018-07-20T11:47:35.505Z,41.60
2018-07-20T11:50:05.416Z,40.40
2018-07-20T11:52:36.819Z,38.40
2018-07-20T11:55:06.618Z,38.30
2018-07-20T11:57:36.320Z,37.90
2018-07-20T12:00:06.115Z,37.10
2018-07-20T12:02:35.851Z,37.50
2018-07-20T12:05:06.217Z,39.30
2018-07-20T12:07:36.322Z,38.70
2018-07-20T12:10:06.175Z,37.90
2018-07-20T12:12:35.907Z,37.70
2018-07-20T12:15:06.007Z,38.00
2018-07-20T12:17:35.770Z,37.50
2018-07-20T12:20:05.511Z,37.90
2018-07-20T12:22:35.241Z,38.10
2018-07-20T12:25:05.243Z,36.50
2018-07-20T12:27:35.243Z,35.10
2018-07-20T12:30:05.708Z,36.10
2018-07-20T12:32:35.403Z,37.30
2018-07-20T12:37:35.855Z,36.20
2018-07-20T12:40:05.611Z,37.20
2018-07-20T12:42:35.365Z,34.30
2018-07-20T12:45:05.102Z,35.70
2018-07-20T12:47:34.844Z,35.80
2018-07-20T12:50:05.256Z,36.50
2018-07-20T12:55:04.435Z,34.70
2018-07-20T12:57:36.171Z,34.80
2018-07-20T13:00:05.976Z,35.50
2018-07-20T13:02:35.674Z,36.90
2018-07-20T13:05:05.833Z,38.40
2018-07-20T13:07:35.567Z,37.40
2018-07-20T13:10:05.841Z,37.60
2018-07-20T13:12:35.578Z,35.40
2018-07-20T13:15:05.878Z,36.30
2018-07-20T13:17:36.470Z,33.40
2018-07-20T13:20:06.246Z,34.00
2018-07-20T13:22:36.006Z,35.70
2018-07-20T13:25:05.773Z,34.30
2018-07-20T13:27:35.531Z,34.50
2018-07-20T13:30:06.678Z,35.70
2018-07-20T13:32:36.541Z,34.60
2018-07-20T13:35:06.332Z,34.00
2018-07-20T13:37:36.107Z,34.70
2018-07-20T13:40:06.659Z,33.70
2018-07-20T13:42:36.426Z,34.30
2018-07-20T13:45:07.286Z,33.60
2018-07-20T13:47:37.002Z,33.30
2018-07-20T13:52:36.114Z,33.10
2018-07-20T13:55:06.098Z,32.30
2018-07-20T13:57:35.824Z,33.00
2018-07-20T14:00:06.540Z,35.10
2018-07-20T14:02:37.394Z,34.00
2018-07-20T14:05:07.213Z,34.40
2018-07-20T14:07:36.956Z,34.30
2018-07-20T14:10:06.791Z,35.30
2018-07-20T14:12:36.776Z,36.50
2018-07-20T14:15:06.774Z,36.70
2018-07-20T14:17:36.516Z,35.00
2018-07-20T14:20:06.258Z,37.40
2018-07-20T14:22:36.067Z,37.50
2018-07-20T14:25:05.775Z,36.20
2018-07-20T14:27:35.527Z,36.70
2018-07-20T14:30:05.485Z,36.20
2018-07-20T14:32:35.260Z,36.70
2018-07-20T14:35:05.287Z,37.70
2018-07-20T14:37:35.025Z,37.40
2018-07-20T14:40:06.991Z,38.20
2018-07-20T14:42:36.726Z,38.40
2018-07-20T14:45:07.641Z,38.80
2018-07-20T14:50:08.085Z,39.70
2018-07-20T14:52:37.959Z,39.90
2018-07-20T14:55:07.651Z,40.30
2018-07-20T14:57:37.376Z,40.10
2018-07-20T15:00:07.259Z,40.20
2018-07-20T15:02:36.944Z,41.10
2018-07-20T15:05:06.803Z,41.80
2018-07-20T15:07:36.646Z,40.30
2018-07-20T15:10:06.434Z,40.40
2018-07-20T15:12:36.126Z,40.10
2018-07-20T15:15:07.359Z,40.90
2018-07-20T15:17:37.347Z,36.50
2018-07-20T15:22:45.435Z,35.00
2018-07-20T15:25:15.120Z,33.30
2018-07-20T15:27:44.918Z,31.80
2018-07-20T15:30:14.666Z,31.50
2018-07-20T15:32:45.303Z,30.10
2018-07-20T15:35:15.023Z,30.10
2018-07-20T15:37:44.784Z,29.80
2018-07-20T15:40:14.558Z,29.20
2018-07-20T15:42:44.287Z,28.10
2018-07-20T15:45:14.662Z,28.20
2018-07-20T15:47:44.491Z,27.90
2018-07-20T15:50:14.254Z,28.60
2018-07-20T15:53:36.252Z,29.30
2018-07-20T15:55:13.683Z,27.40
2018-07-20T15:57:43.396Z,27.30
2018-07-20T16:00:13.359Z,27.30
2018-07-20T16:02:43.087Z,28.20
2018-07-20T16:05:15.357Z,28.20
2018-07-20T16:07:45.550Z,27.30
2018-07-20T16:10:15.371Z,28.00
2018-07-20T16:15:14.479Z,28.00
2018-07-20T16:17:44.218Z,29.10
2018-07-20T16:20:14.804Z,30.00
2018-07-20T16:22:44.530Z,30.00
2018-07-20T16:25:14.239Z,31.30
2018-07-20T16:27:43.946Z,31.20
2018-07-20T16:30:13.684Z,32.00
2018-07-20T16:32:43.472Z,32.10
2018-07-20T16:35:13.196Z,31.70
2018-07-20T16:37:42.940Z,33.90
2018-07-20T16:40:12.723Z,33.20
2018-07-20T16:42:42.504Z,33.50
2018-07-20T16:45:12.199Z,36.10
2018-07-20T16:47:41.935Z,34.00
2018-07-20T16:50:11.687Z,35.80
2018-07-20T16:52:41.813Z,36.20
2018-07-20T16:55:11.545Z,35.20
2018-07-20T16:57:41.235Z,36.00
2018-07-20T17:00:10.948Z,36.10
2018-07-20T17:02:40.702Z,35.40
2018-07-20T17:05:10.407Z,36.40
2018-07-20T17:07:40.101Z,35.40
2018-07-20T17:10:09.826Z,38.30
2018-07-20T17:12:39.539Z,38.30
2018-07-20T17:17:38.466Z,38.10
2018-07-20T17:20:08.217Z,37.90
2018-07-20T17:22:37.957Z,38.60
2018-07-20T17:25:07.740Z,39.60
2018-07-20T17:27:37.426Z,40.10
2018-07-20T17:30:07.206Z,40.30
2018-07-20T17:32:37.037Z,41.00
2018-07-20T17:35:06.800Z,41.00
2018-07-20T17:37:36.549Z,40.40
2018-07-20T17:40:06.500Z,40.60
2018-07-20T17:42:36.207Z,41.90
2018-07-20T17:45:05.985Z,42.10
2018-07-20T17:47:35.678Z,43.80
2018-07-20T17:50:05.423Z,43.60
2018-07-20T17:52:35.125Z,46.00
2018-07-20T17:55:04.910Z,44.80
2018-07-20T17:57:34.691Z,44.90
2018-07-20T18:00:04.762Z,45.50
2018-07-20T18:02:34.484Z,44.70
2018-07-20T18:05:04.280Z,46.10
2018-07-20T18:07:34.107Z,47.60
2018-07-20T18:10:04.822Z,48.00
2018-07-20T18:12:34.517Z,47.90
2018-07-20T18:15:04.606Z,48.70
2018-07-20T18:17:34.320Z,49.20
2018-07-20T18:20:04.166Z,49.00
2018-07-20T18:22:33.859Z,48.20
2018-07-20T18:25:03.665Z,48.70
2018-07-20T18:27:33.481Z,50.50
2018-07-20T18:30:03.202Z,49.60
2018-07-20T18:32:32.985Z,50.40
2018-07-20T18:35:02.719Z,51.40
2018-07-20T18:37:32.424Z,49.60
2018-07-20T18:40:02.223Z,50.30
2018-07-20T18:42:31.930Z,51.60
2018-07-20T18:45:01.672Z,50.00
2018-07-20T18:47:31.433Z,50.10
2018-07-20T18:50:01.198Z,50.30
2018-07-20T18:52:30.914Z,50.70
2018-07-20T18:55:00.660Z,49.70
2018-07-20T18:57:30.437Z,50.60
2018-07-20T19:00:00.183Z,49.80
2018-07-20T19:02:29.890Z,52.00
2018-07-20T19:04:59.613Z,52.70
2018-07-20T19:07:29.327Z,53.70
2018-07-20T19:09:59.332Z,53.90
2018-07-20T19:12:29.096Z,54.00
2018-07-20T19:14:58.836Z,54.70
2018-07-20T19:17:28.556Z,54.00
2018-07-20T19:19:58.326Z,54.80
2018-07-20T19:22:28.043Z,51.20
2018-07-20T19:24:57.783Z,50.30
2018-07-20T19:27:27.492Z,50.20
2018-07-20T19:29:57.191Z,49.70
2018-07-20T19:32:26.924Z,50.30
2018-07-20T19:34:56.624Z,51.50
2018-07-20T19:37:26.431Z,53.40
2018-07-20T19:39:56.200Z,55.00
2018-07-20T19:42:25.912Z,55.90
2018-07-20T19:44:55.642Z,56.90
2018-07-20T19:47:25.315Z,57.20
2018-07-20T19:49:55.032Z,53.80
2018-07-20T19:54:53.984Z,54.40
2018-07-20T19:57:23.715Z,55.00
2018-07-20T19:59:53.392Z,56.70
2018-07-20T20:02:23.109Z,58.00
2018-07-20T20:04:52.810Z,58.20
2018-07-20T20:07:22.560Z,56.80
2018-07-20T20:09:52.298Z,56.40
2018-07-20T20:12:21.982Z,56.40
2018-07-20T20:14:52.480Z,56.70
2018-07-20T20:17:22.201Z,57.00
2018-07-20T20:19:51.910Z,58.20
2018-07-20T20:22:21.615Z,57.10
2018-07-20T20:24:51.376Z,57.20
2018-07-20T20:27:21.112Z,56.40
2018-07-20T20:29:50.812Z,56.70
2018-07-20T20:32:20.530Z,57.00
2018-07-20T20:34:50.251Z,57.50
2018-07-20T20:39:49.262Z,58.70
2018-07-20T20:42:18.949Z,58.90
2018-07-20T20:44:48.630Z,59.20
2018-07-20T20:47:18.450Z,59.40
2018-07-20T20:49:48.223Z,59.80
2018-07-20T20:52:17.967Z,61.30
2018-07-20T20:54:47.659Z,61.00
2018-07-20T20:57:17.379Z,60.70
2018-07-20T20:59:47.093Z,60.30
2018-07-20T21:02:16.894Z,59.80
2018-07-20T21:04:46.656Z,60.10
2018-07-20T21:07:16.483Z,60.00
2018-07-20T21:09:46.283Z,59.80
2018-07-20T21:12:16.139Z,60.20
2018-07-20T21:14:45.814Z,61.50
2018-07-20T21:17:15.506Z,64.10
2018-07-20T21:19:45.227Z,66.90
2018-07-20T21:22:14.995Z,69.70
2018-07-20T21:24:44.692Z,71.80
2018-07-20T21:27:14.391Z,73.80
2018-07-20T21:29:44.432Z,75.10
2018-07-20T21:32:14.131Z,77.10
2018-07-20T21:34:43.851Z,78.30
2018-07-20T21:37:13.519Z,79.40
2018-07-20T21:39:43.311Z,79.10
2018-07-20T21:42:13.670Z,79.80
2018-07-20T21:44:43.806Z,79.40
2018-07-20T21:47:15.092Z,79.30
2018-07-20T21:49:45.900Z,82.30
2018-07-20T21:52:15.682Z,81.90
2018-07-20T21:54:45.498Z,83.60
2018-07-20T21:57:15.218Z,85.00
2018-07-20T21:59:45.737Z,87.10
2018-07-20T22:02:15.442Z,88.10
2018-07-20T22:04:45.162Z,89.50
2018-07-20T22:07:14.911Z,90.20
2018-07-20T22:09:44.607Z,91.10
2018-07-20T22:12:18.759Z,92.10
2018-07-20T22:14:48.492Z,92.60
2018-07-20T22:17:18.154Z,93.40
2018-07-20T22:19:47.851Z,94.10
2018-07-20T22:22:17.575Z,93.70
2018-07-20T22:24:47.255Z,94.30
2018-07-20T22:29:46.223Z,95.50
2018-07-20T22:32:16.024Z,95.80
2018-07-20T22:34:45.777Z,95.70
2018-07-20T22:37:15.492Z,95.90
2018-07-20T22:39:45.809Z,96.50
2018-07-20T22:42:15.507Z,95.90
2018-07-20T22:44:45.205Z,95.30
2018-07-20T22:47:14.953Z,95.70
2018-07-20T22:49:45.038Z,95.90
2018-07-20T22:52:14.704Z,95.80
2018-07-20T22:54:44.390Z,96.10
2018-07-20T22:57:14.089Z,97.50
2018-07-20T22:59:43.795Z,98.30
2018-07-20T23:02:13.515Z,97.80
2018-07-20T23:04:43.325Z,97.40
2018-07-20T23:07:13.023Z,97.10
2018-07-20T23:09:42.721Z,97.40
2018-07-20T23:12:12.581Z,97.70
2018-07-20T23:14:42.344Z,98.00
2018-07-20T23:17:12.142Z,98.00
2018-07-20T23:19:41.900Z,98.20
2018-07-20T23:22:11.606Z,97.90
2018-07-20T23:24:41.327Z,97.90
2018-07-20T23:27:11.027Z,98.50
2018-07-20T23:29:40.734Z,99.10
2018-07-20T23:32:10.475Z,98.90
2018-07-20T23:34:40.184Z,98.70
2018-07-20T23:37:10.952Z,99.00
2018-07-20T23:39:40.630Z,99.20
2018-07-20T23:42:10.299Z,98.90
2018-07-20T23:44:39.972Z,99.10
2018-07-20T23:47:09.658Z,99.20
2018-07-20T23:49:39.328Z,99.20
2018-07-20T23:52:09.030Z,98.90
2018-07-20T23:54:39.324Z,98.80
2018-07-20T23:57:09.194Z,98.70
2018-07-20T23:59:38.866Z,98.50
